Terminal Aerodrome Forecast
Issued by NWS Central Illinois

Home | Current Version | Previous Version | Text Only | Print | Product List | Glossary On
Versions: 1 2 3 4 5 6 7 8 9 10 11 12 13 14 15 16 17
000
FTUS43 KILX 010300 AAB
TAFPIA
TAF AMD
KPIA 010310Z 0103/0124 16008KT 3SM -RASN BR OVC008
      TEMPO 0103/0105 2SM -SN BR OVC004
     FM010500 14010KT 1SM -SN BR OVC004
     FM011400 08010KT 1/2SM SN OVC004
     FM012000 02014G24KT 2SM -SN OVC008=

USA.gov is the U.S. government's official web portal to all federal, state and local government web resources and services.